Suhaja, Russia
Current Conditions -  °F | °C
As of 5:30 AM on Tuesday 21 Oct 2014 (Local Time) from UIUU Reporting Station
Few Clouds Few Clouds  
Wind Chill: 10°   Ceiling: Unl
Heat Index: 10°   Visibility: 6mi
Dew Point:   Wind: 2mph
Humidity: 73%   Direction: NA
Pressure: 30.21"   Gusts: NA
Location:  52.57°N, 107.13°E
Report Text: UIUU 202130Z VRB01MPS 9999 FEW100 M12/M16 Q1023 NOSIG RMKQFE722/0963 26CLRD60
Loading
Personal Weather Stations






























Interactive Weather Map
Tropical Storm Tracking
New forecast layout! Learn more

10-Day Weather Forecast

Advertisements
Track Severe Weather on mobile